Time;durP1;ratioP1;P1;durP2;ratioP2;P2;SDS_P1;SDS_P2;PMS_P1;PMS_P2;Temp;Humidity;BMP_temperature;BMP_pressure;BME280_temperature;BME280_humidity;BME280_pressure;Samples;Min_cycle;Max_cycle;Signal;HPM_P1;HPM_P2
2023/05/31 00:00:56;;;;;;;4.40;2.35;;;;;;;;;;4992076;28;20104;-73
2023/05/31 00:03:43;;;;;;;3.78;2.03;;;;;;;;;;4995556;28;20045;-73
2023/05/31 00:06:28;;;;;;;3.90;2.13;;;;;;;;;;4992102;28;20108;-71
2023/05/31 00:09:13;;;;;;;9.95;2.67;;;;;;;;;;4987537;28;20331;-70
2023/05/31 00:11:59;;;;;;;8.70;2.70;;;;;;;;;;4990792;28;20042;-71
2023/05/31 00:14:45;;;;;;;7.32;2.67;;;;;;;;;;4985728;28;20029;-63
2023/05/31 00:17:31;;;;;;;5.85;3.10;;;;;;;;;;4994464;28;20037;-63
2023/05/31 00:20:16;;;;;;;5.97;2.92;;;;;;;;;;4987518;28;20361;-64
2023/05/31 00:23:01;;;;;;;6.22;2.40;;;;;;;;;;4991193;28;20493;-64
2023/05/31 00:25:47;;;;;;;4.45;2.15;;;;;;;;;;4989577;28;20431;-68
2023/05/31 00:28:32;;;;;;;6.30;2.10;;;;;;;;;;4988047;28;20041;-70
2023/05/31 00:31:17;;;;;;;6.53;2.42;;;;;;;;;;4993874;28;20054;-71
2023/05/31 00:34:02;;;;;;;5.30;2.33;;;;;;;;;;4980623;28;20038;-66
2023/05/31 00:36:48;;;;;;;6.63;2.42;;;;;;;;;;4993198;28;20480;-66
2023/05/31 00:39:33;;;;;;;4.55;1.92;;;;;;;;;;4995219;28;20061;-65
2023/05/31 00:42:18;;;;;;;3.38;1.98;;;;;;;;;;4995455;28;20030;-66
2023/05/31 00:45:05;;;;;;;6.28;2.25;;;;;;;;;;4985075;28;20030;-66
2023/05/31 00:47:51;;;;;;;5.32;1.90;;;;;;;;;;4990921;28;20480;-71
2023/05/31 00:50:36;;;;;;;5.18;2.72;;;;;;;;;;4992806;28;20034;-62
2023/05/31 00:53:21;;;;;;;7.18;2.20;;;;;;;;;;4994514;28;20045;-63
2023/05/31 00:56:07;;;;;;;5.93;2.30;;;;;;;;;;4985561;28;20026;-61
2023/05/31 00:58:53;;;;;;;4.20;2.17;;;;;;;;;;4992520;28;20056;-62
2023/05/31 01:01:38;;;;;;;7.93;2.38;;;;;;;;;;4989064;28;20034;-60
2023/05/31 01:04:23;;;;;;;7.30;2.53;;;;;;;;;;4995422;28;20041;-61
2023/05/31 01:07:09;;;;;;;6.38;2.28;;;;;;;;;;4993872;28;20037;-64
2023/05/31 01:09:54;;;;;;;7.45;2.47;;;;;;;;;;4993273;28;20045;-63
2023/05/31 01:12:55;;;;;;;4.57;2.25;;;;;;;;;;4989836;28;20116;-64
2023/05/31 01:15:55;;;;;;;4.80;2.33;;;;;;;;;;4989185;28;20025;-66
2023/05/31 01:18:44;;;;;;;4.47;2.08;;;;;;;;;;4983271;28;20258;-65
2023/05/31 01:21:37;;;;;;;6.33;2.43;;;;;;;;;;4985017;28;20041;-66
2023/05/31 01:24:31;;;;;;;4.25;1.55;;;;;;;;;;4989099;28;20042;-64
2023/05/31 01:27:16;;;;;;;3.63;2.17;;;;;;;;;;4988137;28;20034;-66
2023/05/31 01:30:02;;;;;;;7.78;2.88;;;;;;;;;;4993961;28;20535;-63
2023/05/31 01:32:48;;;;;;;4.75;2.25;;;;;;;;;;4983399;28;20044;-64
2023/05/31 01:35:34;;;;;;;4.85;2.50;;;;;;;;;;4980016;28;20064;-63
2023/05/31 01:38:19;;;;;;;4.70;2.13;;;;;;;;;;4992620;28;20030;-66
2023/05/31 01:41:07;;;;;;;7.95;2.20;;;;;;;;;;4989671;28;20048;-64
2023/05/31 01:43:53;;;;;;;4.78;2.50;;;;;;;;;;4992365;28;20033;-66
2023/05/31 01:46:40;;;;;;;9.80;2.42;;;;;;;;;;4991510;28;20167;-63
2023/05/31 01:49:25;;;;;;;7.32;2.15;;;;;;;;;;4982809;28;20056;-62
2023/05/31 01:52:13;;;;;;;10.50;3.95;;;;;;;;;;4992359;28;20048;-64
2023/05/31 01:54:58;;;;;;;6.40;2.53;;;;;;;;;;4983818;28;20086;-61
2023/05/31 01:57:45;;;;;;;4.88;2.65;;;;;;;;;;4974600;28;20037;-63
2023/05/31 02:00:30;;;;;;;4.03;2.10;;;;;;;;;;4981123;28;20045;-72
2023/05/31 02:03:16;;;;;;;5.38;2.80;;;;;;;;;;4984384;28;20436;-69
2023/05/31 02:06:01;;;;;;;7.57;2.20;;;;;;;;;;4990371;28;20030;-70
2023/05/31 02:08:46;;;;;;;3.95;1.88;;;;;;;;;;4991954;28;20049;-69
2023/05/31 02:11:31;;;;;;;4.53;2.13;;;;;;;;;;4982950;28;20030;-72
2023/05/31 02:14:16;;;;;;;5.60;2.58;;;;;;;;;;4977537;28;20064;-70
2023/05/31 02:17:02;;;;;;;2.85;2.30;;;;;;;;;;4993862;28;20116;-70
2023/05/31 02:19:47;;;;;;;3.88;1.80;;;;;;;;;;4964267;28;20025;-60
2023/05/31 02:22:32;;;;;;;6.43;2.50;;;;;;;;;;4991735;28;20093;-69
2023/05/31 02:25:18;;;;;;;7.20;2.67;;;;;;;;;;4986021;28;20026;-70
2023/05/31 02:28:03;;;;;;;6.65;2.53;;;;;;;;;;4977478;28;20038;-69
2023/05/31 02:30:58;;;;;;;5.93;2.20;;;;;;;;;;4981063;28;20387;-69
2023/05/31 02:33:43;;;;;;;6.68;2.20;;;;;;;;;;4984379;28;20477;-71
2023/05/31 02:36:30;;;;;;;6.93;2.50;;;;;;;;;;4987019;28;20050;-71
2023/05/31 02:39:15;;;;;;;7.30;2.58;;;;;;;;;;4989933;28;20226;-65
2023/05/31 02:42:00;;;;;;;4.55;2.08;;;;;;;;;;4971125;28;20072;-63
2023/05/31 02:44:46;;;;;;;5.35;2.47;;;;;;;;;;4982802;28;20049;-62
2023/05/31 02:47:31;;;;;;;5.57;2.08;;;;;;;;;;4984346;28;20275;-63
2023/05/31 02:50:16;;;;;;;3.92;2.10;;;;;;;;;;4992936;28;20129;-62
2023/05/31 02:53:04;;;;;;;6.30;2.47;;;;;;;;;;4994327;28;20034;-62
2023/05/31 02:55:49;;;;;;;6.35;2.20;;;;;;;;;;4990867;28;20038;-67
2023/05/31 02:58:34;;;;;;;4.60;1.98;;;;;;;;;;4986769;28;20045;-70
2023/05/31 03:01:20;;;;;;;5.75;2.38;;;;;;;;;;4994759;28;20261;-71
2023/05/31 03:04:05;;;;;;;6.57;3.22;;;;;;;;;;4986125;28;20113;-70
2023/05/31 03:06:50;;;;;;;4.88;2.63;;;;;;;;;;4983695;28;20038;-70
2023/05/31 03:09:35;;;;;;;4.97;2.30;;;;;;;;;;4986303;28;20104;-72
2023/05/31 03:12:21;;;;;;;3.75;2.20;;;;;;;;;;4994921;28;20493;-71
2023/05/31 03:15:06;;;;;;;2.78;1.98;;;;;;;;;;4983064;28;20145;-62
2023/05/31 03:17:52;;;;;;;3.55;2.22;;;;;;;;;;4992907;28;20037;-62
2023/05/31 03:20:38;;;;;;;6.78;2.08;;;;;;;;;;4991851;28;20036;-64
2023/05/31 03:23:23;;;;;;;6.55;2.70;;;;;;;;;;4989030;28;20037;-64
2023/05/31 03:26:08;;;;;;;5.18;2.10;;;;;;;;;;4984112;28;20040;-62
2023/05/31 03:28:53;;;;;;;6.00;2.90;;;;;;;;;;4983725;28;20035;-63
2023/05/31 03:31:39;;;;;;;8.95;3.10;;;;;;;;;;4994470;28;20034;-61
2023/05/31 03:34:24;;;;;;;6.47;2.72;;;;;;;;;;4997542;28;20049;-61
2023/05/31 03:37:09;;;;;;;5.35;2.63;;;;;;;;;;4988665;28;20034;-63
2023/05/31 03:39:54;;;;;;;4.53;2.38;;;;;;;;;;4969512;28;20033;-64
2023/05/31 03:42:40;;;;;;;6.40;2.78;;;;;;;;;;4992328;28;20042;-66
2023/05/31 03:45:25;;;;;;;4.43;2.17;;;;;;;;;;4984010;28;20030;-67
2023/05/31 03:48:10;;;;;;;6.10;2.45;;;;;;;;;;4994750;28;20064;-65
2023/05/31 03:50:56;;;;;;;6.13;2.38;;;;;;;;;;4995409;28;20503;-63
2023/05/31 03:53:41;;;;;;;5.68;2.80;;;;;;;;;;4993970;28;20037;-70
2023/05/31 03:56:26;;;;;;;7.38;2.70;;;;;;;;;;4993876;28;20097;-62
2023/05/31 03:59:12;;;;;;;4.75;2.28;;;;;;;;;;4992211;28;20176;-62
2023/05/31 04:01:57;;;;;;;6.38;2.60;;;;;;;;;;5004860;28;20112;-63
2023/05/31 04:04:42;;;;;;;5.22;2.40;;;;;;;;;;4995930;28;20066;-64
2023/05/31 04:07:27;;;;;;;4.93;2.42;;;;;;;;;;4980600;28;20030;-61
2023/05/31 04:10:13;;;;;;;5.05;2.53;;;;;;;;;;4994585;28;20037;-64
2023/05/31 04:12:58;;;;;;;8.38;2.13;;;;;;;;;;4982895;28;20501;-65
2023/05/31 04:15:43;;;;;;;4.18;2.17;;;;;;;;;;4984004;28;20057;-66
2023/05/31 04:18:28;;;;;;;7.40;2.28;;;;;;;;;;4983715;28;20434;-65
2023/05/31 04:21:13;;;;;;;6.45;2.08;;;;;;;;;;4966059;28;20181;-65
2023/05/31 04:23:59;;;;;;;7.93;2.50;;;;;;;;;;4996195;28;20116;-65
2023/05/31 04:26:45;;;;;;;4.47;2.10;;;;;;;;;;4991785;28;20044;-64
2023/05/31 04:29:30;;;;;;;5.95;2.20;;;;;;;;;;4990678;28;20780;-65
2023/05/31 04:32:16;;;;;;;8.10;2.80;;;;;;;;;;4992203;28;20038;-71
2023/05/31 04:35:03;;;;;;;3.80;1.90;;;;;;;;;;4984516;28;20033;-70
2023/05/31 04:37:52;;;;;;;5.43;2.33;;;;;;;;;;4992593;28;20038;-70
2023/05/31 04:40:40;;;;;;;5.07;2.05;;;;;;;;;;4993699;28;20030;-71
2023/05/31 04:43:25;;;;;;;7.00;2.58;;;;;;;;;;4994064;28;20073;-69
2023/05/31 04:46:10;;;;;;;6.13;2.60;;;;;;;;;;4987525;28;20038;-70
2023/05/31 04:48:57;;;;;;;5.55;2.50;;;;;;;;;;4976659;28;20034;-65
2023/05/31 04:51:42;;;;;;;4.90;2.17;;;;;;;;;;4986395;28;20222;-64
2023/05/31 04:54:27;;;;;;;5.90;2.90;;;;;;;;;;4987166;28;20038;-67
2023/05/31 04:57:12;;;;;;;5.55;2.13;;;;;;;;;;4986901;28;20157;-65
2023/05/31 04:59:58;;;;;;;5.00;2.78;;;;;;;;;;4978278;28;20041;-64
2023/05/31 05:02:43;;;;;;;5.63;2.85;;;;;;;;;;4982696;28;20033;-66
2023/05/31 05:05:28;;;;;;;4.10;2.75;;;;;;;;;;4982208;28;20069;-62
2023/05/31 05:08:13;;;;;;;11.10;3.45;;;;;;;;;;4990644;28;20046;-69
2023/05/31 05:10:58;;;;;;;5.78;2.38;;;;;;;;;;4989875;28;20237;-67
2023/05/31 05:13:44;;;;;;;7.00;3.30;;;;;;;;;;4990051;28;20679;-71
2023/05/31 05:16:29;;;;;;;6.10;2.47;;;;;;;;;;4984838;28;20081;-67
2023/05/31 05:19:14;;;;;;;8.00;2.28;;;;;;;;;;4987541;28;20042;-65
2023/05/31 05:22:00;;;;;;;5.40;2.95;;;;;;;;;;4983957;28;20041;-66
2023/05/31 05:24:45;;;;;;;7.13;2.45;;;;;;;;;;4974889;28;20084;-71
2023/05/31 05:27:30;;;;;;;5.47;2.63;;;;;;;;;;4981302;28;20042;-70
2023/05/31 05:30:16;;;;;;;6.10;2.75;;;;;;;;;;4971016;28;20030;-64
2023/05/31 05:33:01;;;;;;;5.90;2.78;;;;;;;;;;4991936;28;20413;-65
2023/05/31 05:35:47;;;;;;;5.57;2.13;;;;;;;;;;4967504;28;20121;-67
2023/05/31 05:38:33;;;;;;;5.78;2.60;;;;;;;;;;4988352;28;20046;-66
2023/05/31 05:41:18;;;;;;;11.15;2.30;;;;;;;;;;4974881;28;20183;-61
2023/05/31 05:44:03;;;;;;;6.65;2.55;;;;;;;;;;4983212;28;20410;-60
2023/05/31 05:46:48;;;;;;;6.65;2.35;;;;;;;;;;4990548;28;20033;-66
2023/05/31 05:49:33;;;;;;;3.50;2.00;;;;;;;;;;4988469;28;20444;-65
2023/05/31 05:52:19;;;;;;;5.43;2.47;;;;;;;;;;4977148;28;20061;-65
2023/05/31 05:55:04;;;;;;;4.75;2.35;;;;;;;;;;4988805;28;20076;-65
2023/05/31 05:57:51;;;;;;;6.55;2.58;;;;;;;;;;4976644;28;20539;-64
2023/05/31 06:00:36;;;;;;;7.97;2.90;;;;;;;;;;4988381;28;20033;-72
2023/05/31 06:03:23;;;;;;;5.88;2.17;;;;;;;;;;4987428;28;20072;-71
2023/05/31 06:06:08;;;;;;;7.13;2.65;;;;;;;;;;4987727;28;20065;-70
2023/05/31 06:08:53;;;;;;;5.80;2.65;;;;;;;;;;4992329;28;20777;-72
2023/05/31 06:11:39;;;;;;;6.80;2.47;;;;;;;;;;4981487;28;20128;-74
2023/05/31 06:14:24;;;;;;;7.53;2.40;;;;;;;;;;4969528;28;20030;-72
2023/05/31 06:17:09;;;;;;;7.78;2.22;;;;;;;;;;4990546;28;20037;-71
2023/05/31 06:19:54;;;;;;;4.80;2.25;;;;;;;;;;4994622;28;20481;-71
2023/05/31 06:22:39;;;;;;;7.05;2.33;;;;;;;;;;4987207;28;20145;-71
2023/05/31 06:25:25;;;;;;;6.03;2.55;;;;;;;;;;4987763;28;20037;-70
2023/05/31 06:28:10;;;;;;;5.15;2.28;;;;;;;;;;4985748;28;20048;-70
2023/05/31 06:30:56;;;;;;;7.78;2.47;;;;;;;;;;4993188;28;20036;-73
2023/05/31 06:33:41;;;;;;;4.43;2.30;;;;;;;;;;4999709;28;20057;-73
2023/05/31 06:36:26;;;;;;;9.63;2.58;;;;;;;;;;4980855;28;20044;-67
2023/05/31 06:39:12;;;;;;;5.97;2.28;;;;;;;;;;4989455;28;20037;-69
2023/05/31 06:41:59;;;;;;;5.82;2.72;;;;;;;;;;4989769;28;20602;-66
2023/05/31 06:44:45;;;;;;;6.78;3.22;;;;;;;;;;4986695;28;20441;-62
2023/05/31 06:47:30;;;;;;;8.00;2.70;;;;;;;;;;4983776;28;20454;-65
2023/05/31 06:50:15;;;;;;;6.70;1.88;;;;;;;;;;4983837;28;20044;-65
2023/05/31 06:53:00;;;;;;;7.28;2.60;;;;;;;;;;4984172;28;20101;-63
2023/05/31 06:55:46;;;;;;;7.05;2.67;;;;;;;;;;4980927;28;20034;-68
2023/05/31 06:58:31;;;;;;;9.60;2.70;;;;;;;;;;4988093;28;20096;-63
2023/05/31 07:01:16;;;;;;;5.82;2.28;;;;;;;;;;4986194;28;20033;-63
2023/05/31 07:04:01;;;;;;;11.55;2.70;;;;;;;;;;4984730;28;20473;-63
2023/05/31 07:06:47;;;;;;;5.82;2.90;;;;;;;;;;4991369;28;20038;-65
2023/05/31 07:09:32;;;;;;;6.28;2.90;;;;;;;;;;4980219;28;20042;-63
2023/05/31 07:12:17;;;;;;;4.78;2.35;;;;;;;;;;4968826;28;20049;-63
2023/05/31 07:15:03;;;;;;;6.65;2.35;;;;;;;;;;4990035;28;20029;-68
2023/05/31 07:17:48;;;;;;;5.53;2.22;;;;;;;;;;4986803;28;20038;-68
2023/05/31 07:20:33;;;;;;;5.40;2.50;;;;;;;;;;4992158;28;20366;-68
2023/05/31 07:23:18;;;;;;;7.10;2.53;;;;;;;;;;4987410;28;20042;-70
2023/05/31 07:26:04;;;;;;;5.30;2.35;;;;;;;;;;4990432;28;20026;-70
2023/05/31 07:28:52;;;;;;;5.90;2.97;;;;;;;;;;4976151;28;20130;-68
2023/05/31 07:31:37;;;;;;;6.40;2.50;;;;;;;;;;4989960;28;20064;-63
2023/05/31 07:34:23;;;;;;;5.03;2.38;;;;;;;;;;4990128;28;20049;-68
2023/05/31 07:37:08;;;;;;;5.32;2.40;;;;;;;;;;4988179;28;20037;-65
2023/05/31 07:39:53;;;;;;;8.63;2.60;;;;;;;;;;4991468;28;20374;-63
2023/05/31 07:42:38;;;;;;;5.68;2.75;;;;;;;;;;4988171;28;20038;-63
2023/05/31 07:45:24;;;;;;;6.10;2.50;;;;;;;;;;4987082;28;20636;-65
2023/05/31 07:48:09;;;;;;;7.20;2.78;;;;;;;;;;4975381;28;20080;-74
2023/05/31 07:50:54;;;;;;;8.10;2.20;;;;;;;;;;4992428;28;20050;-73
2023/05/31 07:53:40;;;;;;;5.00;2.05;;;;;;;;;;4988405;28;20530;-70
2023/05/31 07:56:26;;;;;;;10.05;3.03;;;;;;;;;;4993704;28;20394;-68
2023/05/31 07:59:11;;;;;;;8.38;3.05;;;;;;;;;;4989571;28;20041;-69
2023/05/31 08:01:57;;;;;;;5.50;2.95;;;;;;;;;;4991070;28;20050;-70
2023/05/31 08:04:43;;;;;;;6.97;2.80;;;;;;;;;;4991383;28;20101;-68
2023/05/31 08:07:28;;;;;;;7.13;2.42;;;;;;;;;;4988640;28;20064;-71
2023/05/31 08:10:13;;;;;;;8.57;3.22;;;;;;;;;;4993093;28;20504;-68
2023/05/31 08:12:59;;;;;;;5.70;2.30;;;;;;;;;;4994317;28;20026;-67
2023/05/31 08:15:44;;;;;;;7.63;3.03;;;;;;;;;;4992450;28;20397;-66
2023/05/31 08:18:29;;;;;;;7.25;2.70;;;;;;;;;;4994263;28;20037;-64
2023/05/31 08:21:14;;;;;;;10.27;2.67;;;;;;;;;;4989809;28;20478;-67
2023/05/31 08:24:00;;;;;;;5.47;2.45;;;;;;;;;;4993399;28;20034;-65
2023/05/31 08:26:46;;;;;;;5.28;2.60;;;;;;;;;;4992137;28;20037;-65
2023/05/31 08:29:31;;;;;;;7.18;2.88;;;;;;;;;;4988430;28;20042;-66
2023/05/31 08:32:16;;;;;;;8.98;2.63;;;;;;;;;;4991450;28;20562;-68
2023/05/31 08:35:02;;;;;;;6.60;2.30;;;;;;;;;;4988337;28;20030;-71
2023/05/31 08:37:47;;;;;;;7.45;2.65;;;;;;;;;;4972890;28;20092;-72
2023/05/31 08:40:32;;;;;;;4.90;1.95;;;;;;;;;;4992814;28;20365;-71
2023/05/31 08:43:21;;;;;;;8.65;3.15;;;;;;;;;;4991881;28;20053;-68
2023/05/31 08:46:07;;;;;;;11.30;2.50;;;;;;;;;;4989082;28;20052;-69
2023/05/31 08:48:53;;;;;;;7.10;3.00;;;;;;;;;;4990538;28;20042;-66
2023/05/31 08:51:40;;;;;;;6.75;2.88;;;;;;;;;;4991088;28;20084;-66
2023/05/31 08:54:26;;;;;;;7.65;2.80;;;;;;;;;;4991039;28;20147;-67
2023/05/31 08:57:11;;;;;;;7.07;2.72;;;;;;;;;;4991625;28;20072;-66
2023/05/31 08:59:57;;;;;;;5.32;2.55;;;;;;;;;;4990371;28;20038;-67
2023/05/31 09:02:44;;;;;;;11.38;2.75;;;;;;;;;;4991412;28;20088;-67
2023/05/31 09:05:29;;;;;;;7.80;2.83;;;;;;;;;;4989009;28;20073;-71
2023/05/31 09:08:14;;;;;;;13.73;3.03;;;;;;;;;;5016688;23;20131;-67
2023/05/31 09:11:03;;;;;;;11.93;3.10;;;;;;;;;;5046806;28;20104;-66
2023/05/31 09:13:48;;;;;;;7.93;3.05;;;;;;;;;;5012463;28;20170;-66
2023/05/31 09:16:33;;;;;;;9.02;3.33;;;;;;;;;;5023718;28;20029;-66
2023/05/31 09:19:19;;;;;;;5.25;2.60;;;;;;;;;;5018564;28;20070;-68
2023/05/31 09:22:05;;;;;;;13.77;2.80;;;;;;;;;;5024783;28;20464;-77
2023/05/31 09:24:55;;;;;;;6.22;3.05;;;;;;;;;;5023716;28;20124;-75
2023/05/31 09:27:40;;;;;;;4.25;2.83;;;;;;;;;;4998652;28;20033;-68
2023/05/31 09:30:26;;;;;;;7.80;2.92;;;;;;;;;;5009381;28;20376;-69
2023/05/31 09:33:13;;;;;;;7.68;2.78;;;;;;;;;;5009303;28;20076;-69
2023/05/31 09:35:58;;;;;;;5.75;2.97;;;;;;;;;;5004360;28;20405;-69
2023/05/31 09:38:43;;;;;;;4.15;2.40;;;;;;;;;;5006880;28;20069;-68
2023/05/31 09:41:28;;;;;;;5.72;2.95;;;;;;;;;;5006068;28;20179;-77
2023/05/31 09:44:14;;;;;;;6.57;3.05;;;;;;;;;;5004460;28;20150;-76
2023/05/31 09:47:07;;;;;;;7.93;3.08;;;;;;;;;;5017585;28;20368;-77
2023/05/31 09:49:53;;;;;;;8.70;2.55;;;;;;;;;;4989743;28;20116;-76
2023/05/31 09:52:38;;;;;;;5.63;2.28;;;;;;;;;;5001060;28;20384;-81
2023/05/31 09:55:23;;;;;;;6.85;2.58;;;;;;;;;;5004106;28;20056;-76
2023/05/31 09:58:08;;;;;;;7.15;2.90;;;;;;;;;;5006654;28;20464;-78
2023/05/31 10:00:58;;;;;;;6.75;2.83;;;;;;;;;;5007107;28;20029;-78
2023/05/31 10:03:43;;;;;;;7.15;2.75;;;;;;;;;;5006776;28;20040;-70
2023/05/31 10:06:29;;;;;;;7.38;2.75;;;;;;;;;;5011190;28;20025;-68
2023/05/31 10:09:14;;;;;;;9.77;2.85;;;;;;;;;;5013684;28;20025;-72
2023/05/31 10:12:02;;;;;;;9.65;2.90;;;;;;;;;;5011446;28;20079;-73
2023/05/31 10:14:49;;;;;;;8.73;3.45;;;;;;;;;;5007949;28;20029;-73
2023/05/31 10:17:38;;;;;;;7.78;2.67;;;;;;;;;;5007823;28;20065;-76
2023/05/31 10:20:24;;;;;;;5.57;2.38;;;;;;;;;;5001360;28;20029;-72
2023/05/31 10:23:12;;;;;;;8.35;2.83;;;;;;;;;;5000015;28;20034;-75
2023/05/31 10:29:16;;;;;;;4.50;2.60;;;;;;;;;;4993160;28;20069;-74
2023/05/31 10:32:06;;;;;;;8.80;2.75;;;;;;;;;;5006584;28;20534;-74
2023/05/31 10:34:52;;;;;;;8.30;2.75;;;;;;;;;;5012392;28;20626;-75
2023/05/31 10:37:41;;;;;;;7.22;2.60;;;;;;;;;;5014719;28;20037;-69
2023/05/31 10:40:26;;;;;;;;;;;;;;;;;;4999923;28;20030;-76
2023/05/31 10:43:17;;;;;;;8.98;3.10;;;;;;;;;;4993524;28;19920;-72
2023/05/31 10:46:04;;;;;;;9.13;2.63;;;;;;;;;;5004831;28;20029;-76
2023/05/31 10:48:57;;;;;;;3.40;2.20;;;;;;;;;;4984064;28;20034;-75
2023/05/31 10:51:46;;;;;;;4.95;2.80;;;;;;;;;;5006630;28;20060;-75
2023/05/31 10:54:31;;;;;;;;;;;;;;;;;;5014287;28;20514;-72
2023/05/31 10:57:16;;;;;;;7.20;3.10;;;;;;;;;;5005489;28;20003;-78
2023/05/31 11:00:03;;;;;;;6.63;2.83;;;;;;;;;;5006639;28;20056;-76
2023/05/31 11:02:51;;;;;;;6.78;2.70;;;;;;;;;;5003669;28;20033;-80
2023/05/31 11:05:36;;;;;;;8.30;2.45;;;;;;;;;;4995739;28;20040;-79
2023/05/31 11:08:21;;;;;;;7.90;2.53;;;;;;;;;;5007650;28;20175;-78
2023/05/31 11:11:26;;;;;;;3.83;2.30;;;;;;;;;;5009449;28;20045;-78
2023/05/31 11:14:25;;;;;;;8.02;3.08;;;;;;;;;;4996672;28;20064;-75
2023/05/31 11:17:11;;;;;;;7.15;2.63;;;;;;;;;;5013811;28;20496;-73
2023/05/31 11:19:56;;;;;;;7.82;2.67;;;;;;;;;;4995700;28;20036;-74
2023/05/31 11:22:41;;;;;;;5.47;2.85;;;;;;;;;;5013671;28;20052;-76
2023/05/31 11:25:27;;;;;;;7.55;2.92;;;;;;;;;;5011953;28;20499;-74
2023/05/31 11:28:17;;;;;;;7.22;2.63;;;;;;;;;;4993050;28;20099;-75
2023/05/31 11:31:02;;;;;;;7.45;2.42;;;;;;;;;;5011138;28;20037;-72
2023/05/31 11:33:50;;;;;;;10.18;3.00;;;;;;;;;;5006072;28;20056;-81
2023/05/31 11:36:35;;;;;;;11.23;2.80;;;;;;;;;;4991032;28;20026;-79
2023/05/31 11:39:21;;;;;;;5.50;2.53;;;;;;;;;;5007886;28;20029;-80
2023/05/31 11:42:07;;;;;;;4.88;2.50;;;;;;;;;;5011778;28;20018;-77
2023/05/31 11:44:53;;;;;;;10.63;2.67;;;;;;;;;;5012245;28;20031;-81
2023/05/31 11:47:47;;;;;;;12.10;3.13;;;;;;;;;;5014459;28;20740;-78
2023/05/31 11:50:33;;;;;;;9.18;3.17;;;;;;;;;;5013533;28;20053;-65
2023/05/31 11:53:18;;;;;;;7.28;2.50;;;;;;;;;;5002543;28;20045;-73
2023/05/31 11:56:05;;;;;;;3.25;2.00;;;;;;;;;;5015911;28;20037;-70
2023/05/31 11:58:51;;;;;;;6.47;2.30;;;;;;;;;;5010196;28;20040;-73
2023/05/31 12:01:38;;;;;;;5.00;2.53;;;;;;;;;;5015170;28;20388;-70
2023/05/31 12:04:27;;;;;;;4.93;2.90;;;;;;;;;;5011624;28;20040;-70
2023/05/31 12:07:12;;;;;;;;;;;;;;;;;;5014937;28;20041;-71
2023/05/31 12:09:57;;;;;;;5.57;2.75;;;;;;;;;;5007026;28;19996;-67
2023/05/31 12:12:45;;;;;;;4.22;2.35;;;;;;;;;;5007242;28;20039;-68
2023/05/31 12:15:31;;;;;;;6.35;2.55;;;;;;;;;;5015955;28;20068;-69
2023/05/31 12:18:16;;;;;;;9.90;2.60;;;;;;;;;;4996865;28;20017;-72
2023/05/31 12:21:11;;;;;;;6.65;2.33;;;;;;;;;;4990131;28;20105;-69
2023/05/31 12:23:57;;;;;;;4.65;2.22;;;;;;;;;;5006441;28;20476;-69
2023/05/31 12:26:44;;;;;;;6.75;2.50;;;;;;;;;;5017499;28;20037;-75
2023/05/31 12:29:30;;;;;;;6.35;2.65;;;;;;;;;;5016644;28;20047;-70
2023/05/31 12:32:17;;;;;;;10.38;2.40;;;;;;;;;;5009554;28;20430;-70
2023/05/31 12:35:03;;;;;;;5.57;1.92;;;;;;;;;;5010832;28;20144;-72
2023/05/31 12:37:50;;;;;;;7.15;2.30;;;;;;;;;;5008880;28;20042;-68
2023/05/31 12:40:40;;;;;;;13.20;2.85;;;;;;;;;;5011377;28;20504;-69
2023/05/31 12:43:25;;;;;;;6.45;2.13;;;;;;;;;;5013468;28;20044;-71
2023/05/31 12:46:15;;;;;;;6.00;2.22;;;;;;;;;;5010945;28;20447;-71
2023/05/31 12:49:09;;;;;;;5.70;2.22;;;;;;;;;;4999369;28;20025;-69
2023/05/31 12:52:02;;;;;;;8.38;2.35;;;;;;;;;;5010100;28;20072;-75
2023/05/31 12:54:47;;;;;;;3.30;2.08;;;;;;;;;;5001331;28;20125;-72
2023/05/31 12:57:33;;;;;;;6.07;2.78;;;;;;;;;;5017365;28;20033;-71
2023/05/31 13:00:18;;;;;;;4.38;2.08;;;;;;;;;;5009719;28;20500;-76
2023/05/31 13:03:04;;;;;;;7.10;2.00;;;;;;;;;;5006489;28;20471;-72
2023/05/31 13:05:50;;;;;;;4.55;2.08;;;;;;;;;;5005025;28;20176;-68
2023/05/31 13:08:35;;;;;;;6.28;2.25;;;;;;;;;;5009633;28;20037;-72
2023/05/31 13:11:21;;;;;;;5.82;2.22;;;;;;;;;;5012688;28;20368;-71
2023/05/31 13:14:08;;;;;;;8.93;2.85;;;;;;;;;;5006890;28;20034;-72
2023/05/31 13:16:54;;;;;;;6.18;2.22;;;;;;;;;;4991208;28;20549;-76
2023/05/31 13:19:39;;;;;;;6.57;2.58;;;;;;;;;;5013012;28;20021;-71
2023/05/31 13:22:24;;;;;;;2.78;1.52;;;;;;;;;;5003484;28;20432;-72
2023/05/31 13:25:09;;;;;;;7.15;2.20;;;;;;;;;;5008050;28;20041;-74
2023/05/31 13:27:55;;;;;;;4.95;2.15;;;;;;;;;;4993604;28;20042;-73
2023/05/31 13:30:40;;;;;;;3.75;2.20;;;;;;;;;;5007869;28;20111;-70
2023/05/31 13:33:28;;;;;;;5.25;2.50;;;;;;;;;;5009320;28;20037;-71
2023/05/31 13:36:14;;;;;;;4.18;2.28;;;;;;;;;;5009996;28;20037;-71
2023/05/31 13:38:59;;;;;;;5.57;2.65;;;;;;;;;;4993517;28;20029;-73
2023/05/31 13:41:46;;;;;;;4.80;2.17;;;;;;;;;;5008769;28;20492;-79
2023/05/31 13:44:31;;;;;;;6.28;1.92;;;;;;;;;;5009813;28;20021;-73
2023/05/31 13:47:16;;;;;;;5.93;2.28;;;;;;;;;;5008560;28;20038;-73
2023/05/31 13:50:02;;;;;;;4.45;1.70;;;;;;;;;;5002665;28;20037;-74
2023/05/31 13:52:48;;;;;;;12.13;2.42;;;;;;;;;;5010074;28;20131;-72
2023/05/31 13:55:33;;;;;;;2.45;1.77;;;;;;;;;;5013075;28;20037;-72
2023/05/31 13:58:18;;;;;;;6.25;2.20;;;;;;;;;;5004794;28;20029;-66
2023/05/31 14:01:05;;;;;;;5.25;2.60;;;;;;;;;;5011437;28;20036;-62
2023/05/31 14:03:50;;;;;;;3.90;2.25;;;;;;;;;;5005348;28;20385;-75
2023/05/31 14:06:35;;;;;;;3.72;1.73;;;;;;;;;;5008636;28;20033;-73
2023/05/31 14:09:21;;;;;;;5.45;2.20;;;;;;;;;;5012444;28;20036;-71
2023/05/31 14:12:07;;;;;;;6.20;2.10;;;;;;;;;;5011816;28;20369;-73
2023/05/31 14:14:52;;;;;;;4.47;2.05;;;;;;;;;;5006692;28;20504;-71
2023/05/31 14:17:38;;;;;;;4.68;1.95;;;;;;;;;;5011211;28;20150;-66
2023/05/31 14:20:23;;;;;;;3.50;1.98;;;;;;;;;;5003914;28;20044;-68
2023/05/31 14:23:08;;;;;;;3.30;1.88;;;;;;;;;;5008235;28;20029;-67
2023/05/31 14:25:53;;;;;;;8.23;2.25;;;;;;;;;;4991283;28;20523;-67
2023/05/31 14:28:39;;;;;;;6.65;2.00;;;;;;;;;;5001266;28;20537;-68
2023/05/31 14:31:24;;;;;;;5.80;2.55;;;;;;;;;;5007623;28;20033;-70
2023/05/31 14:34:09;;;;;;;3.92;2.30;;;;;;;;;;5005924;28;20483;-67
2023/05/31 14:36:54;;;;;;;4.97;2.47;;;;;;;;;;5003828;28;20030;-73
2023/05/31 14:39:41;;;;;;;3.00;2.17;;;;;;;;;;5008288;28;20084;-74
2023/05/31 14:42:30;;;;;;;3.88;2.10;;;;;;;;;;5005412;28;20034;-76
2023/05/31 14:45:16;;;;;;;5.97;1.67;;;;;;;;;;5015220;28;20041;-75
2023/05/31 14:48:02;;;;;;;5.95;2.05;;;;;;;;;;5009764;28;20030;-71
2023/05/31 14:50:47;;;;;;;5.78;2.35;;;;;;;;;;5002543;28;20030;-70
2023/05/31 14:53:32;;;;;;;2.63;1.77;;;;;;;;;;4997291;28;20029;-69
2023/05/31 14:56:18;;;;;;;6.03;2.78;;;;;;;;;;5009102;28;20436;-79
2023/05/31 14:59:03;;;;;;;6.30;2.30;;;;;;;;;;4995460;28;20072;-67
2023/05/31 15:01:48;;;;;;;3.80;2.30;;;;;;;;;;5004046;28;20420;-67
2023/05/31 15:04:33;;;;;;;4.32;1.73;;;;;;;;;;5011896;28;20041;-69
2023/05/31 15:07:19;;;;;;;7.85;1.90;;;;;;;;;;5015440;28;20084;-68
2023/05/31 15:10:04;;;;;;;5.00;1.85;;;;;;;;;;5003429;28;20029;-70
2023/05/31 15:12:49;;;;;;;2.90;1.77;;;;;;;;;;5012689;28;20083;-79
2023/05/31 15:15:37;;;;;;;6.80;2.00;;;;;;;;;;5008286;28;20574;-73
2023/05/31 15:18:22;;;;;;;6.63;2.70;;;;;;;;;;4992097;28;20117;-72
2023/05/31 15:21:07;;;;;;;5.38;1.88;;;;;;;;;;5007183;28;20075;-73
2023/05/31 15:23:54;;;;;;;4.60;1.83;;;;;;;;;;4996692;28;20048;-73
2023/05/31 15:26:39;;;;;;;4.95;2.08;;;;;;;;;;5001899;28;20168;-73
2023/05/31 15:29:25;;;;;;;5.78;2.20;;;;;;;;;;5000572;28;20029;-73
2023/05/31 15:32:10;;;;;;;6.20;1.60;;;;;;;;;;5011728;28;20054;-65
2023/05/31 15:34:55;;;;;;;5.38;2.10;;;;;;;;;;5021924;28;20439;-72
2023/05/31 15:37:40;;;;;;;3.30;1.95;;;;;;;;;;5011141;28;20108;-74
2023/05/31 15:40:26;;;;;;;9.23;2.05;;;;;;;;;;4993864;28;20041;-72
2023/05/31 15:43:11;;;;;;;6.50;2.60;;;;;;;;;;5006816;28;20033;-73
2023/05/31 15:45:56;;;;;;;5.35;2.60;;;;;;;;;;5003122;28;20037;-73
2023/05/31 15:48:41;;;;;;;7.13;2.42;;;;;;;;;;5004038;28;20040;-73
2023/05/31 15:51:26;;;;;;;5.97;1.83;;;;;;;;;;5010827;28;20396;-67
2023/05/31 15:54:12;;;;;;;6.18;2.13;;;;;;;;;;4988435;28;20052;-64
2023/05/31 15:56:57;;;;;;;10.40;2.40;;;;;;;;;;5011522;28;20037;-64
2023/05/31 15:59:42;;;;;;;3.42;2.17;;;;;;;;;;5014426;28;20073;-67
2023/05/31 16:02:27;;;;;;;7.72;2.17;;;;;;;;;;5014248;28;20064;-64
2023/05/31 16:05:15;;;;;;;5.72;2.28;;;;;;;;;;5024319;28;20064;-65
2023/05/31 16:08:01;;;;;;;9.07;2.58;;;;;;;;;;5009609;28;20033;-68
2023/05/31 16:10:46;;;;;;;8.30;2.38;;;;;;;;;;5016986;28;20499;-66
2023/05/31 16:13:31;;;;;;;3.85;2.08;;;;;;;;;;5024400;28;20510;-66
2023/05/31 16:16:16;;;;;;;3.85;2.22;;;;;;;;;;4997757;28;20036;-69
2023/05/31 16:19:05;;;;;;;4.90;1.88;;;;;;;;;;5012797;28;20125;-67
2023/05/31 16:21:50;;;;;;;3.45;1.90;;;;;;;;;;5027329;28;20018;-66
2023/05/31 16:24:35;;;;;;;4.57;2.45;;;;;;;;;;5017313;28;20029;-66
2023/05/31 16:27:20;;;;;;;5.68;2.15;;;;;;;;;;5020460;28;20026;-69
2023/05/31 16:30:06;;;;;;;4.95;2.65;;;;;;;;;;5000495;28;20395;-67
2023/05/31 16:32:51;;;;;;;4.30;2.00;;;;;;;;;;5012014;28;20099;-64
2023/05/31 16:35:37;;;;;;;6.75;2.85;;;;;;;;;;5009957;28;20051;-65
2023/05/31 16:38:22;;;;;;;5.70;2.25;;;;;;;;;;5014910;28;20041;-67